Time;durP1;ratioP1;P1;durP2;ratioP2;P2;SDS_P1;SDS_P2;PMS_P1;PMS_P2;Temp;Humidity;BMP_temperature;BMP_pressure;BME280_temperature;BME280_humidity;BME280_pressure;Samples;Min_cycle;Max_cycle;Signal;HPM_P1;HPM_P2
2021/08/20 00:04:12;;;;;;;14.07;4.17;;;;;;;17.36;100.00;94734.81;10287718;28;20041;-73
2021/08/20 00:09:12;;;;;;;4.60;3.80;;;;;;;17.15;100.00;94733.78;10287076;28;20059;-72
2021/08/20 00:14:15;;;;;;;5.30;3.97;;;;;;;17.18;100.00;94725.81;10288178;28;20301;-73
2021/08/20 00:19:15;;;;;;;7.43;4.30;;;;;;;17.27;100.00;94735.91;10287957;28;20710;-72
2021/08/20 00:24:16;;;;;;;7.83;4.40;;;;;;;17.16;100.00;94728.03;10286074;28;20097;-72
2021/08/20 00:29:18;;;;;;;7.30;4.57;;;;;;;17.12;100.00;94737.13;10286336;28;20133;-72
2021/08/20 00:34:18;;;;;;;7.30;4.37;;;;;;;17.20;100.00;94733.66;10287961;28;20049;-73
2021/08/20 00:39:19;;;;;;;11.30;4.50;;;;;;;17.12;100.00;94737.97;10288077;28;20449;-73
2021/08/20 00:44:20;;;;;;;6.25;4.15;;;;;;;17.10;100.00;94734.75;10287170;28;20027;-73
2021/08/20 00:49:21;;;;;;;7.65;4.63;;;;;;;17.10;100.00;94739.38;10287563;28;20057;-73
2021/08/20 00:54:21;;;;;;;6.80;4.57;;;;;;;16.99;100.00;94733.44;10287526;28;20085;-73
2021/08/20 00:59:25;;;;;;;6.75;4.28;;;;;;;16.93;100.00;94738.19;10287502;28;20746;-73
2021/08/20 01:04:25;;;;;;;9.57;4.80;;;;;;;16.88;100.00;94736.44;10285894;28;20038;-73
2021/08/20 01:09:25;;;;;;;8.60;5.13;;;;;;;16.90;100.00;94736.13;10286968;28;20077;-73
2021/08/20 01:14:30;;;;;;;8.15;4.80;;;;;;;16.83;100.00;94739.25;10286916;28;20294;-73
2021/08/20 01:19:32;;;;;;;9.52;5.05;;;;;;;16.95;100.00;94740.59;10285086;28;20059;-73
2021/08/20 01:24:32;;;;;;;12.07;5.03;;;;;;;16.87;100.00;94733.97;10285086;28;20038;-73
2021/08/20 01:29:32;;;;;;;9.25;5.38;;;;;;;16.77;100.00;94726.13;10286314;28;20037;-72
2021/08/20 01:34:33;;;;;;;7.63;5.38;;;;;;;16.71;100.00;94730.88;10286454;28;20619;-72
2021/08/20 01:39:33;;;;;;;9.67;5.23;;;;;;;16.62;100.00;94728.13;10286230;28;20027;-72
2021/08/20 01:44:34;;;;;;;8.77;5.47;;;;;;;16.51;100.00;94729.50;10285777;28;20074;-73
2021/08/20 01:49:34;;;;;;;10.80;5.07;;;;;;;16.50;100.00;94728.69;10285642;28;20610;-72
2021/08/20 01:54:34;;;;;;;9.73;5.25;;;;;;;16.56;100.00;94730.19;10285931;28;20030;-72
2021/08/20 01:59:35;;;;;;;9.27;4.87;;;;;;;16.50;100.00;94730.63;10283993;28;20150;-72
2021/08/20 02:04:36;;;;;;;10.10;5.20;;;;;;;16.51;100.00;94727.59;10297235;28;20308;-73
2021/08/20 02:09:36;;;;;;;7.07;5.77;;;;;;;16.29;100.00;94735.75;10285729;28;20050;-73
2021/08/20 02:14:36;;;;;;;8.10;5.23;;;;;;;16.42;100.00;94739.50;10288940;28;20641;-73
2021/08/20 02:19:37;;;;;;;12.63;5.37;;;;;;;16.26;100.00;94737.19;10292460;28;20109;-73
2021/08/20 02:24:37;;;;;;;7.77;5.20;;;;;;;16.29;100.00;94741.19;10291976;28;20041;-72
2021/08/20 02:29:37;;;;;;;10.10;5.83;;;;;;;16.15;100.00;94733.91;10274792;28;20027;-73
2021/08/20 02:34:38;;;;;;;10.03;5.97;;;;;;;16.14;100.00;94737.72;10291898;28;20027;-72
2021/08/20 02:39:38;;;;;;;8.97;6.27;;;;;;;16.17;100.00;94736.31;10290249;28;20287;-72
2021/08/20 02:44:39;;;;;;;8.82;5.20;;;;;;;16.21;100.00;94734.59;10290541;28;20025;-72
2021/08/20 02:49:39;;;;;;;9.60;5.37;;;;;;;16.11;100.00;94746.47;10290672;28;20039;-72
2021/08/20 02:54:39;;;;;;;13.40;6.03;;;;;;;16.23;100.00;94746.72;10290578;28;20074;-72
2021/08/20 02:59:40;;;;;;;7.87;5.23;;;;;;;16.13;100.00;94738.03;10290312;28;20284;-73
2021/08/20 03:04:40;;;;;;;8.10;5.43;;;;;;;16.10;100.00;94744.88;10290816;28;20286;-73
2021/08/20 03:09:40;;;;;;;11.00;5.53;;;;;;;16.14;100.00;94737.72;10290762;28;20285;-73
2021/08/20 03:14:41;;;;;;;11.18;6.53;;;;;;;16.18;100.00;94743.34;10290338;28;20029;-73
2021/08/20 03:19:41;;;;;;;6.63;5.10;;;;;;;16.19;100.00;94740.31;10290437;28;20109;-73
2021/08/20 03:24:42;;;;;;;9.48;5.75;;;;;;;16.23;100.00;94738.59;10289044;28;20027;-73
2021/08/20 03:29:42;;;;;;;11.00;5.97;;;;;;;16.22;100.00;94758.69;10290251;28;20034;-73
2021/08/20 03:34:43;;;;;;;8.48;5.53;;;;;;;16.09;100.00;94759.56;10289816;28;20046;-73
2021/08/20 03:39:43;;;;;;;11.60;8.00;;;;;;;16.09;100.00;94759.56;10289473;28;20088;-73
2021/08/20 03:44:44;;;;;;;9.30;6.03;;;;;;;16.01;100.00;94761.06;10289484;28;20114;-72
2021/08/20 03:49:44;;;;;;;7.85;5.97;;;;;;;15.82;100.00;94769.38;10289412;28;20023;-73
2021/08/20 03:54:44;;;;;;;9.57;6.10;;;;;;;15.74;100.00;94761.94;10288366;28;20026;-72
2021/08/20 03:59:45;;;;;;;10.53;6.07;;;;;;;15.72;100.00;94785.81;10288725;28;20110;-73
2021/08/20 04:04:45;;;;;;;8.30;5.60;;;;;;;15.50;100.00;94781.13;10288973;28;20129;-72
2021/08/20 04:09:47;;;;;;;8.17;5.37;;;;;;;15.57;100.00;94783.44;10286624;28;20282;-72
2021/08/20 04:14:47;;;;;;;8.40;5.30;;;;;;;15.68;100.00;94785.63;10286960;28;20147;-73
2021/08/20 04:19:47;;;;;;;10.83;6.20;;;;;;;15.73;100.00;94779.31;10287102;28;20198;-72
2021/08/20 04:24:48;;;;;;;12.03;6.40;;;;;;;15.85;100.00;94782.31;10287193;28;20292;-73
2021/08/20 04:29:48;;;;;;;9.48;6.10;;;;;;;15.95;100.00;94785.88;10287304;28;20061;-72
2021/08/20 04:34:48;;;;;;;14.03;6.10;;;;;;;15.97;100.00;94798.03;10286915;28;20482;-72
2021/08/20 04:39:50;;;;;;;11.23;5.37;;;;;;;16.14;100.00;94802.78;10286173;28;20031;-73
2021/08/20 04:44:50;;;;;;;10.52;5.45;;;;;;;16.13;100.00;94800.38;10284581;28;20035;-75
2021/08/20 04:49:50;;;;;;;13.87;5.90;;;;;;;16.38;100.00;94809.84;10286665;28;20027;-72
2021/08/20 04:54:51;;;;;;;12.00;7.03;;;;;;;16.66;100.00;94807.00;10284310;28;20421;-72
2021/08/20 04:59:51;;;;;;;9.18;7.07;;;;;;;16.82;100.00;94802.78;10284138;28;20030;-72
2021/08/20 05:04:52;;;;;;;18.20;6.30;;;;;;;17.17;100.00;94799.47;10281519;28;20043;-72
2021/08/20 05:09:52;;;;;;;10.80;6.10;;;;;;;17.60;100.00;94802.31;10284040;28;20039;-72
2021/08/20 05:14:53;;;;;;;10.85;5.38;;;;;;;17.99;100.00;94808.03;10283633;28;20338;-72
2021/08/20 05:19:53;;;;;;;10.00;5.10;;;;;;;18.69;100.00;94809.94;10282954;28;20487;-72
2021/08/20 05:24:54;;;;;;;15.70;7.83;;;;;;;19.47;100.00;94806.97;10281442;28;20501;-72
2021/08/20 05:29:55;;;;;;;14.02;6.47;;;;;;;20.23;100.00;94812.63;10282696;28;20545;-73
2021/08/20 05:34:55;;;;;;;9.03;5.50;;;;;;;20.86;99.73;94825.47;10281514;28;20030;-72
2021/08/20 05:39:55;;;;;;;13.33;5.93;;;;;;;21.54;94.41;94816.03;10283142;28;20042;-73
2021/08/20 05:44:56;;;;;;;7.70;5.17;;;;;;;21.91;90.00;94821.50;10281938;28;20420;-73
2021/08/20 05:49:56;;;;;;;10.37;4.77;;;;;;;22.56;85.24;94819.91;10286041;28;20397;-73
2021/08/20 05:54:57;;;;;;;9.20;5.47;;;;;;;23.12;78.78;94813.63;10289103;28;20273;-72
2021/08/20 05:59:57;;;;;;;12.25;5.00;;;;;;;23.67;75.82;94819.31;10288945;28;20089;-72
2021/08/20 06:04:58;;;;;;;7.47;4.80;;;;;;;24.22;71.00;94813.91;10288731;28;20039;-72
2021/08/20 06:09:58;;;;;;;8.13;4.55;;;;;;;24.94;64.92;94817.38;10288438;28;20641;-73
2021/08/20 06:14:59;;;;;;;5.00;4.03;;;;;;;25.30;61.96;94816.09;10289297;28;20031;-73
2021/08/20 06:19:59;;;;;;;13.63;4.70;;;;;;;25.89;59.40;94807.63;10288151;28;20033;-73
2021/08/20 06:25:00;;;;;;;13.13;4.23;;;;;;;26.45;54.36;94792.31;10289068;28;20405;-73
2021/08/20 06:30:00;;;;;;;14.57;4.33;;;;;;;26.48;52.83;94793.53;10291732;28;20274;-73
2021/08/20 06:35:00;;;;;;;8.53;4.00;;;;;;;27.14;50.88;94793.13;10292429;28;20019;-73
2021/08/20 06:40:02;;;;;;;7.40;3.60;;;;;;;28.34;46.52;94790.16;10292254;28;20030;-73
2021/08/20 06:45:03;;;;;;;13.00;4.05;;;;;;;28.48;45.78;94798.50;10292264;28;20027;-73
2021/08/20 06:50:04;;;;;;;10.70;4.35;;;;;;;29.63;43.19;94803.63;10292218;28;20478;-73
2021/08/20 06:55:05;;;;;;;8.52;3.63;;;;;;;28.91;43.96;94797.94;10291945;28;20626;-73
2021/08/20 07:00:06;;;;;;;10.02;3.65;;;;;;;30.29;41.47;94788.56;10291096;28;20536;-73
2021/08/20 07:05:07;;;;;;;8.88;3.40;;;;;;;29.74;41.42;94793.34;10291445;28;20051;-73
2021/08/20 07:10:13;;;;;;;8.45;3.95;;;;;;;30.37;40.23;94792.88;10273956;28;20538;-73
2021/08/20 07:15:14;;;;;;;4.20;3.08;;;;;;;31.43;38.75;94789.28;10291334;28;20023;-73
2021/08/20 07:20:14;;;;;;;6.93;3.50;;;;;;;31.32;39.10;94781.00;10273455;28;20027;-73
2021/08/20 07:25:15;;;;;;;6.27;2.90;;;;;;;32.20;37.39;94782.72;10290724;28;20031;-73
2021/08/20 07:30:15;;;;;;;5.40;3.00;;;;;;;32.53;36.87;94783.16;10289471;28;20019;-73
2021/08/20 07:35:16;;;;;;;4.37;2.77;;;;;;;31.79;37.08;94779.88;10290474;28;20023;-73
2021/08/20 07:40:16;;;;;;;6.07;3.13;;;;;;;32.75;35.94;94773.81;10290288;28;20030;-73
2021/08/20 07:45:17;;;;;;;5.38;3.35;;;;;;;33.56;34.68;94778.66;10290038;28;20065;-73
2021/08/20 07:50:18;;;;;;;10.95;2.80;;;;;;;33.08;35.36;94779.75;10289889;28;20034;-73
2021/08/20 07:55:18;;;;;;;5.68;2.50;;;;;;;34.08;33.79;94763.50;10289311;28;20114;-73
2021/08/20 08:00:30;;;;;;;12.23;2.60;;;;;;;33.71;33.67;94768.88;10289228;28;20030;-73
2021/08/20 08:05:30;;;;;;;5.07;2.92;;;;;;;34.30;33.40;94771.50;10288690;28;20572;-73
2021/08/20 08:10:30;;;;;;;4.47;2.53;;;;;;;34.63;32.00;94768.88;10288760;28;20034;-73
2021/08/20 08:15:31;;;;;;;6.70;3.13;;;;;;;36.47;30.14;94765.44;10288843;28;20552;-73
2021/08/20 08:20:31;;;;;;;2.57;2.37;;;;;;;35.70;30.20;94765.00;10287575;28;20031;-73
2021/08/20 08:25:32;;;;;;;8.10;2.80;;;;;;;35.75;30.06;94767.25;10288711;28;20027;-73
2021/08/20 08:30:36;;;;;;;4.15;3.08;;;;;;;36.77;28.35;94753.00;10288382;28;20709;-73
2021/08/20 08:35:37;;;;;;;5.85;2.80;;;;;;;36.70;28.32;94761.63;10288135;28;20026;-73
2021/08/20 08:40:39;;;;;;;3.73;2.67;;;;;;;37.02;27.81;94759.13;10288235;28;20038;-73
2021/08/20 08:45:41;;;;;;;5.00;2.97;;;;;;;37.20;27.85;94744.56;10287707;28;20447;-73
2021/08/20 08:50:46;;;;;;;3.90;2.58;;;;;;;37.55;27.42;94742.69;10287714;28;20109;-73
2021/08/20 08:55:49;;;;;;;3.33;2.97;;;;;;;36.50;28.49;94750.56;10287567;28;20487;-73
2021/08/20 09:00:49;;;;;;;6.00;2.85;;;;;;;36.89;28.19;94745.88;10287009;28;20026;-73
2021/08/20 09:05:50;;;;;;;4.63;2.65;;;;;;;38.39;27.23;94747.16;10287094;28;20049;-74
2021/08/20 09:10:58;;;;;;;3.60;2.65;;;;;;;37.62;27.11;94734.06;10285913;28;20027;-74
2021/08/20 09:16:07;;;;;;;4.50;2.33;;;;;;;38.04;26.40;94744.31;10287319;28;20022;-74
2021/08/20 09:21:07;;;;;;;4.03;3.00;;;;;;;36.21;28.90;94733.75;10287272;28;20031;-74
2021/08/20 09:26:08;;;;;;;5.38;2.85;;;;;;;37.37;27.79;94728.44;10293958;28;20039;-74
2021/08/20 09:31:12;;;;;;;9.20;3.10;;;;;;;38.89;26.19;94730.50;10295025;28;20113;-74
2021/08/20 09:36:19;;;;;;;4.53;2.63;;;;;;;39.96;24.94;94718.28;10294900;28;20105;-74
2021/08/20 09:41:30;;;;;;;3.40;2.67;;;;;;;39.93;24.68;94705.91;10294759;28;20406;-73
2021/08/20 09:46:41;;;;;;;3.05;2.40;;;;;;;41.14;23.30;94705.84;10294472;28;20030;-73
2021/08/20 09:51:48;;;;;;;4.95;3.03;;;;;;;40.22;24.46;94704.72;10293640;28;20053;-74
2021/08/20 09:56:49;;;;;;;5.32;2.85;;;;;;;39.73;24.78;94711.19;10294350;28;20398;-73
2021/08/20 10:01:49;;;;;;;6.35;2.78;;;;;;;41.25;23.73;94705.34;10293974;28;20031;-73
2021/08/20 10:06:51;;;;;;;4.53;3.10;;;;;;;41.92;22.67;94696.88;10293562;28;20097;-72
2021/08/20 10:11:53;;;;;;;3.65;2.90;;;;;;;41.17;23.64;94693.66;10293545;28;20034;-73
2021/08/20 10:16:53;;;;;;;5.07;3.40;;;;;;;38.61;25.93;94702.22;10293265;28;20019;-73
2021/08/20 10:21:54;;;;;;;5.47;3.28;;;;;;;39.04;25.70;94693.44;10292923;28;20399;-74
2021/08/20 10:26:56;;;;;;;5.30;3.33;;;;;;;39.20;25.42;94695.22;10275814;28;20034;-74
2021/08/20 10:31:58;;;;;;;8.02;3.40;;;;;;;40.59;23.67;94685.00;10293060;28;20058;-74
2021/08/20 10:37:17;;;;;;;3.03;2.72;;;;;;;40.25;23.78;94680.50;10273720;28;20031;-72
2021/08/20 10:42:34;;;;;;;5.07;3.45;;;;;;;41.17;23.55;94679.53;10292729;28;20057;-73
2021/08/20 10:47:35;;;;;;;5.03;3.20;;;;;;;41.39;23.09;94664.41;10292398;28;20027;-72
2021/08/20 10:52:44;;;;;;;7.63;3.20;;;;;;;41.23;23.04;94657.88;10292109;28;20019;-73
2021/08/20 10:57:44;;;;;;;5.57;3.33;;;;;;;40.49;23.41;94650.44;10291852;28;20502;-73
2021/08/20 11:02:56;;;;;;;11.13;4.20;;;;;;;38.92;25.08;94656.53;10292062;28;20031;-73
2021/08/20 11:07:56;;;;;;;5.85;3.80;;;;;;;39.62;24.80;94647.75;10291122;28;20047;-73
2021/08/20 11:12:57;;;;;;;4.90;3.40;;;;;;;41.04;23.69;94650.78;10291349;28;20828;-73
2021/08/20 11:17:59;;;;;;;5.15;3.53;;;;;;;39.86;24.13;94644.31;10291091;28;20031;-73
2021/08/20 11:23:14;;;;;;;5.00;3.97;;;;;;;38.02;26.24;94650.59;10291062;28;20501;-73
2021/08/20 11:28:18;;;;;;;7.57;4.75;;;;;;;35.98;28.74;94634.06;10291206;28;20106;-73
2021/08/20 11:33:26;;;;;;;6.45;4.05;;;;;;;34.32;30.20;94641.53;10290676;28;20085;-73
2021/08/20 11:38:30;;;;;;;6.45;4.85;;;;;;;32.70;32.74;94631.13;10290418;28;20445;-73
2021/08/20 11:43:33;;;;;;;10.25;5.53;;;;;;;31.08;35.79;94620.97;10289620;28;20541;-73
2021/08/20 11:48:47;;;;;;;8.23;5.45;;;;;;;29.86;38.04;94634.25;10289489;28;20114;-72
2021/08/20 11:53:48;;;;;;;10.82;5.82;;;;;;;29.66;39.64;94622.81;10300257;28;20035;-72
2021/08/20 11:58:49;;;;;;;9.25;5.75;;;;;;;29.37;39.87;94611.78;10288407;28;20090;-73
2021/08/20 12:03:54;;;;;;;8.25;6.05;;;;;;;30.10;38.89;94609.63;10289312;28;20027;-73
2021/08/20 12:09:06;;;;;;;11.25;6.25;;;;;;;30.58;38.42;94605.44;10289185;28;20046;-72
2021/08/20 12:14:14;;;;;;;11.02;6.60;;;;;;;30.62;37.90;94604.22;10287522;28;20027;-72
2021/08/20 12:19:29;;;;;;;9.38;6.13;;;;;;;30.55;37.35;94589.63;10288917;28;20027;-73
2021/08/20 12:24:37;;;;;;;12.02;5.47;;;;;;;30.24;38.16;94590.16;10288664;28;20027;-73
2021/08/20 12:29:38;;;;;;;7.47;5.82;;;;;;;29.62;38.87;94583.25;10288401;28;20023;-73
2021/08/20 12:34:41;;;;;;;10.18;7.22;;;;;;;29.49;40.78;94578.13;10288287;28;20026;-73
2021/08/20 12:39:45;;;;;;;10.10;6.18;;;;;;;29.55;40.05;94581.28;10288249;28;20058;-73
2021/08/20 12:44:47;;;;;;;10.30;7.28;;;;;;;29.98;39.54;94574.84;10286498;28;20055;-73
2021/08/20 12:49:59;;;;;;;8.43;5.93;;;;;;;29.89;39.10;94575.28;10288140;28;20585;-73
2021/08/20 12:55:30;;;;;;;8.43;6.32;;;;;;;29.37;40.05;94556.41;10286536;28;20023;-73
2021/08/20 13:00:37;;;;;;;8.93;6.38;;;;;;;29.58;39.38;94565.84;10274348;28;20077;-73
2021/08/20 13:05:50;;;;;;;8.63;6.63;;;;;;;29.59;39.23;94564.66;10287038;28;20190;-73
2021/08/20 13:10:53;;;;;;;9.27;6.57;;;;;;;29.69;38.67;94563.06;10287190;28;20043;-73
2021/08/20 13:15:54;;;;;;;7.93;6.10;;;;;;;29.65;39.07;94560.28;10287144;28;20409;-73
2021/08/20 13:20:57;;;;;;;9.05;6.32;;;;;;;29.82;38.18;94547.56;10287262;28;20113;-73
2021/08/20 13:25:57;;;;;;;32.72;22.38;;;;;;;30.12;38.46;94546.25;10286827;28;20138;-73
2021/08/20 13:30:58;;;;;;;13.50;6.88;;;;;;;30.48;37.95;94546.84;10287046;28;20351;-73
2021/08/20 13:35:58;;;;;;;8.85;5.93;;;;;;;30.45;37.60;94542.13;10286966;28;20487;-73
2021/08/20 13:40:59;;;;;;;7.87;5.83;;;;;;;30.54;37.71;94538.13;10285418;28;20030;-73
2021/08/20 13:45:59;;;;;;;12.02;5.88;;;;;;;30.19;38.00;94542.66;10286639;28;20027;-73
2021/08/20 13:50:59;;;;;;;12.15;6.35;;;;;;;30.00;37.72;94551.09;10286921;28;20030;-73
2021/08/20 13:56:00;;;;;;;10.67;6.93;;;;;;;29.67;38.77;94547.63;10286209;28;20415;-72
2021/08/20 14:01:00;;;;;;;10.07;6.43;;;;;;;29.20;39.50;94544.16;10301312;28;20382;-72
2021/08/20 14:06:03;;;;;;;12.27;6.70;;;;;;;28.99;39.58;94547.75;10325482;28;20588;-72
2021/08/20 14:11:04;;;;;;;12.13;7.30;;;;;;;28.80;40.10;94543.41;10330337;28;20039;-72
2021/08/20 14:16:04;;;;;;;14.52;7.35;;;;;;;28.71;41.12;94549.34;10332040;28;20029;-72
2021/08/20 14:21:06;;;;;;;10.23;6.70;;;;;;;28.83;40.32;94536.31;10332527;28;20026;-72
2021/08/20 14:26:07;;;;;;;10.50;7.00;;;;;;;28.76;40.68;94542.63;10333045;28;20387;-72
2021/08/20 14:31:07;;;;;;;10.80;6.60;;;;;;;28.84;40.75;94533.13;10315059;28;20168;-72
2021/08/20 14:36:08;;;;;;;10.67;6.20;;;;;;;28.77;40.69;94528.44;10332794;28;20029;-72
2021/08/20 14:41:09;;;;;;;13.47;6.93;;;;;;;28.84;40.70;94532.38;10332600;28;20026;-72
2021/08/20 14:46:09;;;;;;;13.02;7.32;;;;;;;28.70;40.78;94528.41;10332037;28;20027;-72
2021/08/20 14:51:10;;;;;;;15.60;8.23;;;;;;;28.79;40.29;94528.03;10332209;28;20045;-72
2021/08/20 14:56:10;;;;;;;11.80;6.73;;;;;;;28.79;40.31;94530.78;10332282;28;20401;-72
2021/08/20 15:01:10;;;;;;;11.97;7.00;;;;;;;28.72;40.37;94530.78;10331871;28;20875;-72
2021/08/20 15:06:12;;;;;;;8.45;6.50;;;;;;;28.63;40.28;94533.94;10331476;28;20046;-72
2021/08/20 15:11:13;;;;;;;10.30;6.95;;;;;;;28.30;41.33;94533.13;10331270;28;20105;-72
2021/08/20 15:16:14;;;;;;;13.73;6.93;;;;;;;28.00;41.83;94530.69;10331139;28;20025;-72
2021/08/20 15:21:14;;;;;;;11.57;7.17;;;;;;;27.87;42.20;94528.25;10330386;28;20026;-72
2021/08/20 15:26:15;;;;;;;9.87;7.07;;;;;;;27.69;42.67;94530.16;10330750;28;20022;-72
2021/08/20 15:31:15;;;;;;;9.37;7.53;;;;;;;27.73;42.53;94533.72;10330768;28;20065;-72
2021/08/20 15:36:15;;;;;;;12.03;7.13;;;;;;;27.83;42.54;94530.19;10330192;28;20027;-72
2021/08/20 15:41:16;;;;;;;10.80;7.07;;;;;;;27.86;42.05;94528.63;10330583;28;20493;-72
2021/08/20 15:46:16;;;;;;;10.83;7.10;;;;;;;28.01;42.57;94533.03;10330117;28;20041;-72
2021/08/20 15:51:16;;;;;;;11.23;6.20;;;;;;;28.00;42.39;94528.69;10330118;28;20026;-72
2021/08/20 15:56:20;;;;;;;8.80;6.03;;;;;;;27.85;43.06;94533.34;10329908;28;20105;-72
2021/08/20 16:01:21;;;;;;;11.48;6.22;;;;;;;27.75;43.13;94537.66;10329697;28;20313;-72
2021/08/20 16:06:21;;;;;;;9.60;6.13;;;;;;;27.66;43.62;94544.72;10311650;28;20129;-72
2021/08/20 16:11:22;;;;;;;9.48;5.93;;;;;;;27.51;44.06;94543.88;10329089;28;20034;-72
2021/08/20 16:16:22;;;;;;;9.15;6.28;;;;;;;27.49;44.54;94540.69;10329043;28;20486;-72
2021/08/20 16:21:25;;;;;;;10.90;7.00;;;;;;;27.32;47.42;94542.94;10311439;28;20030;-72
2021/08/20 16:26:25;;;;;;;8.73;6.10;;;;;;;27.06;49.12;94557.78;10318198;28;20297;-72
2021/08/20 16:31:25;;;;;;;11.20;6.13;;;;;;;26.97;50.16;94544.31;10288177;28;20026;-72
2021/08/20 16:36:30;;;;;;;10.00;6.17;;;;;;;26.71;52.01;94559.09;10287983;28;20031;-72
2021/08/20 16:41:30;;;;;;;8.30;6.32;;;;;;;26.48;53.55;94553.75;10288427;28;20525;-72
2021/08/20 16:46:30;;;;;;;8.27;6.37;;;;;;;26.36;53.73;94555.63;10286508;28;20027;-72
2021/08/20 16:51:32;;;;;;;12.87;7.07;;;;;;;26.24;54.32;94564.16;10287656;28;20034;-72
2021/08/20 16:56:32;;;;;;;8.85;5.90;;;;;;;26.18;55.23;94571.16;10287578;28;20018;-72
2021/08/20 17:01:33;;;;;;;11.82;6.75;;;;;;;26.06;56.23;94559.25;10287503;28;20837;-72
2021/08/20 17:06:33;;;;;;;8.93;6.50;;;;;;;25.99;56.16;94575.66;10286646;28;20101;-72
2021/08/20 17:11:34;;;;;;;14.73;6.93;;;;;;;25.89;56.53;94574.38;10287123;28;20034;-72
2021/08/20 17:16:34;;;;;;;11.10;6.30;;;;;;;25.70;57.21;94591.06;10287271;28;20114;-72
2021/08/20 17:21:35;;;;;;;12.30;7.20;;;;;;;25.51;59.90;94598.28;10287259;28;20142;-72
2021/08/20 17:26:35;;;;;;;9.25;7.18;;;;;;;25.38;61.78;94606.00;10287289;28;20031;-72
2021/08/20 17:31:36;;;;;;;10.05;6.25;;;;;;;25.29;62.02;94618.41;10286909;28;20110;-72
2021/08/20 17:36:36;;;;;;;10.00;7.27;;;;;;;25.14;63.09;94626.41;10286692;28;20030;-72
2021/08/20 17:41:36;;;;;;;8.87;6.33;;;;;;;25.00;64.01;94635.22;10286866;28;20392;-72
2021/08/20 17:46:37;;;;;;;10.60;7.20;;;;;;;24.93;62.65;94628.84;10292454;28;20031;-72
2021/08/20 17:51:37;;;;;;;9.43;6.40;;;;;;;24.70;64.38;94648.88;10293441;28;20037;-72
2021/08/20 17:56:38;;;;;;;10.40;6.57;;;;;;;24.53;65.97;94650.09;10294395;28;20018;-72
2021/08/20 18:01:38;;;;;;;8.87;6.77;;;;;;;24.37;66.47;94670.22;10294458;28;20034;-72
2021/08/20 18:06:39;;;;;;;19.75;8.57;;;;;;;24.30;67.44;94678.34;10293523;28;20082;-72
2021/08/20 18:11:39;;;;;;;8.10;6.43;;;;;;;24.37;66.49;94685.94;10293860;28;20037;-72
2021/08/20 18:16:39;;;;;;;9.00;7.00;;;;;;;24.31;67.20;94684.63;10293843;28;20029;-72
2021/08/20 18:21:40;;;;;;;12.30;7.27;;;;;;;24.37;66.97;94700.44;10293277;28;20293;-72
2021/08/20 18:26:41;;;;;;;9.32;6.78;;;;;;;24.32;68.42;94703.50;10291834;28;20030;-72
2021/08/20 18:31:41;;;;;;;8.75;6.32;;;;;;;24.33;68.28;94705.06;10291886;28;20478;-72
2021/08/20 18:36:43;;;;;;;10.93;6.90;;;;;;;24.35;68.34;94718.44;10291498;28;20027;-72
2021/08/20 18:41:43;;;;;;;12.00;7.68;;;;;;;24.08;69.40;94725.75;10294598;28;20065;-72
2021/08/20 18:46:44;;;;;;;10.38;6.97;;;;;;;23.90;71.00;94717.91;10294703;28;20107;-73
2021/08/20 18:51:45;;;;;;;12.40;6.57;;;;;;;23.74;73.04;94733.63;10294320;28;20026;-72
2021/08/20 18:56:45;;;;;;;9.48;6.43;;;;;;;23.61;74.04;94732.91;10292990;28;20030;-72
2021/08/20 19:01:45;;;;;;;13.80;7.40;;;;;;;23.58;75.95;94739.13;10292797;28;20053;-72
2021/08/20 19:06:46;;;;;;;14.40;7.33;;;;;;;23.47;77.41;94747.09;10293680;28;20038;-72
2021/08/20 19:11:46;;;;;;;9.90;7.10;;;;;;;23.51;77.07;94750.72;10293065;28;20120;-72
2021/08/20 19:16:51;;;;;;;11.55;7.07;;;;;;;23.35;78.10;94748.78;10292556;28;20042;-72
2021/08/20 19:21:52;;;;;;;12.90;6.72;;;;;;;23.38;78.19;94750.81;10293578;28;20030;-72
2021/08/20 19:26:52;;;;;;;8.17;6.50;;;;;;;23.15;80.96;94750.66;10293353;28;20038;-72
2021/08/20 19:31:53;;;;;;;10.73;7.60;;;;;;;23.06;81.57;94752.75;10293065;28;20121;-72
2021/08/20 19:36:53;;;;;;;11.67;7.50;;;;;;;23.00;82.39;94749.47;10292405;28;20270;-72
2021/08/20 19:41:53;;;;;;;13.17;9.37;;;;;;;22.83;84.75;94758.81;10289112;28;20046;-72
2021/08/20 19:46:54;;;;;;;13.90;8.80;;;;;;;22.70;86.09;94755.38;10288776;28;20034;-72
2021/08/20 19:51:54;;;;;;;14.27;8.57;;;;;;;22.65;86.82;94768.53;10287049;28;20027;-72
2021/08/20 19:56:55;;;;;;;11.90;8.00;;;;;;;22.51;88.80;94757.97;10288207;28;20037;-72
2021/08/20 20:01:55;;;;;;;14.60;8.30;;;;;;;22.23;91.57;94764.19;10287871;28;20428;-72
2021/08/20 20:06:56;;;;;;;11.63;7.80;;;;;;;22.16;92.01;94750.31;10287693;28;20061;-72
2021/08/20 20:11:56;;;;;;;14.35;6.97;;;;;;;22.05;92.32;94746.44;10287949;28;20471;-72
2021/08/20 20:16:56;;;;;;;14.87;8.73;;;;;;;21.79;93.79;94753.13;10287700;28;20023;-72
2021/08/20 20:21:57;;;;;;;11.23;7.47;;;;;;;21.74;93.71;94754.16;10287645;28;20274;-72
2021/08/20 20:26:57;;;;;;;10.23;7.30;;;;;;;21.85;93.05;94754.47;10287446;28;20294;-72
2021/08/20 20:31:57;;;;;;;10.87;7.63;;;;;;;21.83;92.93;94754.81;10286977;28;20277;-72
2021/08/20 20:36:58;;;;;;;12.00;7.97;;;;;;;21.87;92.77;94763.13;10287263;28;20031;-72
2021/08/20 20:41:58;;;;;;;10.98;8.05;;;;;;;21.68;94.13;94766.47;10286282;28;20289;-72
2021/08/20 20:46:59;;;;;;;10.05;6.40;;;;;;;21.54;95.37;94775.00;10286046;28;20137;-72
2021/08/20 20:52:00;;;;;;;10.87;6.63;;;;;;;21.49;95.86;94776.00;10285457;28;20023;-72
2021/08/20 20:57:00;;;;;;;11.50;7.28;;;;;;;21.52;95.15;94774.56;10286523;28;20093;-72
2021/08/20 21:02:01;;;;;;;10.07;7.27;;;;;;;21.53;94.63;94776.16;10286571;28;20077;-72
2021/08/20 21:07:01;;;;;;;17.20;7.60;;;;;;;21.53;93.70;94787.09;10285959;28;20046;-72
2021/08/20 21:12:03;;;;;;;13.02;7.75;;;;;;;21.42;94.41;94789.47;10284863;28;20521;-72
2021/08/20 21:17:03;;;;;;;16.63;7.43;;;;;;;21.34;95.74;94791.16;10286298;28;20030;-72
2021/08/20 21:22:03;;;;;;;10.03;6.93;;;;;;;21.27;95.35;94790.13;10285323;28;20031;-72
2021/08/20 21:27:04;;;;;;;10.50;6.10;;;;;;;21.25;94.43;94798.69;10286160;28;20469;-72
2021/08/20 21:32:08;;;;;;;9.65;6.93;;;;;;;21.28;94.68;94808.94;10285888;28;20398;-72
2021/08/20 21:37:09;;;;;;;13.48;6.97;;;;;;;21.26;93.33;94815.88;10285737;28;20023;-72
2021/08/20 21:42:10;;;;;;;9.35;5.95;;;;;;;21.30;93.52;94806.63;10285826;28;20027;-72
2021/08/20 21:47:10;;;;;;;10.30;6.50;;;;;;;21.24;91.32;94802.53;10285409;28;20035;-72
2021/08/20 21:52:11;;;;;;;10.80;6.70;;;;;;;21.20;92.69;94807.09;10285412;28;20031;-72
2021/08/20 21:57:11;;;;;;;9.17;6.50;;;;;;;21.33;92.56;94805.94;10285439;28;20031;-72
2021/08/20 22:02:11;;;;;;;11.53;6.53;;;;;;;21.21;94.47;94813.34;10285513;28;20274;-72
2021/08/20 22:07:12;;;;;;;13.23;7.07;;;;;;;20.72;99.36;94805.81;10283314;28;20301;-72
2021/08/20 22:12:12;;;;;;;9.63;7.07;;;;;;;20.64;100.00;94816.47;10283888;28;20034;-72
2021/08/20 22:17:12;;;;;;;14.33;6.93;;;;;;;20.52;100.00;94821.88;10283118;28;20027;-72
2021/08/20 22:22:13;;;;;;;13.87;8.47;;;;;;;20.43;100.00;94823.91;10284266;28;20026;-72
2021/08/20 22:27:13;;;;;;;7.70;6.00;;;;;;;20.43;100.00;94821.16;10283621;28;20031;-72
2021/08/20 22:32:13;;;;;;;12.57;6.90;;;;;;;20.39;100.00;94817.50;10289245;28;20110;-72
2021/08/20 22:37:14;;;;;;;9.20;6.20;;;;;;;20.45;100.00;94822.41;10292072;28;20276;-71
2021/08/20 22:42:14;;;;;;;7.17;5.63;;;;;;;20.44;100.00;94820.00;10291716;28;20039;-72
2021/08/20 22:47:15;;;;;;;8.93;5.78;;;;;;;20.41;100.00;94821.47;10291633;28;20038;-72
2021/08/20 22:52:16;;;;;;;7.43;5.57;;;;;;;20.30;100.00;94818.38;10291513;28;20081;-72
2021/08/20 22:57:16;;;;;;;9.27;6.00;;;;;;;20.24;100.00;94805.25;10289262;28;20034;-72
2021/08/20 23:02:17;;;;;;;9.25;6.00;;;;;;;20.16;100.00;94809.63;10290142;28;20486;-72
2021/08/20 23:07:18;;;;;;;10.73;6.65;;;;;;;20.10;100.00;94810.97;10290219;28;20096;-72
2021/08/20 23:12:18;;;;;;;10.37;6.37;;;;;;;19.89;100.00;94797.31;10290464;28;20122;-72